Piney Flats, Tennessee
Current Conditions -  °F | °C
As of 6:53 AM on Thursday 23 Oct 2014 (Local Time) from KTRI Reporting Station
Overcast Overcast  
Wind Chill: 43°   Ceiling: 2700
Heat Index: 47°   Visibility: 10mi
Dew Point: 38°   Wind: 9mph
Humidity: 71%   Direction: 360°N
Pressure: 30.2"   Gusts: NA
Location:  36.42°N, 82.3°W
Report Text: KTRI 231053Z 36008KT 10SM OVC027 08/03 A3020 RMK AO2 SLP218 T00830033
Loading
Personal Weather Stations






























Interactive Weather Map
Tropical Storm Tracking
New forecast layout! Learn more

10-Day Weather Forecast

Advertisements
Track Severe Weather on mobile